KLAS/LAS METAR and TAF weather

Enter ICAO airport designator
Station Type Date Time Source
KLAS METAR 2023/01/30 10:56 UTC NOAA

KLAS 301056Z 30005KT 10SM BKN049 OVC065 07/03 A2988 RMK AO2 RAB25E37 SLP115 MTNS OBSCURED DSNT W-N P0000 T00720033


Station Type Date Time Source
KLAS Decoded METAR 2023/01/30 10:56 UTC NOAA

MCCARRAN INTERNATIONAL AIRPORT , NV, United States (KLAS) 36-07N 115-16W 636M
Jan 30, 2023 - 05:56 AM EST / 2023.01.30 1056 UTC
Wind: from the WNW (300 degrees) at 6 MPH (5 KT):0
Visibility: 10 mile(s):0
Sky conditions: overcast
Precipitation last hour: A trace
Temperature: 45.0 F (7.2 C)
Dew Point: 37.9 F (3.3 C)
Relative Humidity: 76%
Pressure (altimeter): 29.88 in. Hg (1011 hPa)
ob: KLAS 301056Z 30005KT 10SM BKN049 OVC065 07/03 A2988 RMK AO2 RAB25E37 SLP115 MTNS OBSCURED DSNT W-N P0000 T00720033
cycle: 11

Station Type Date Time Source
KLAS TAF 2023/01/30 12:39 UTC NOAA

TAF KLAS 301137Z 3012/3118 32007KT 5SM -SHRA FEW020 BKN040 OVC050
TEMPO 3012/3016 SCT020 OVC035
FM301600 05008KT 6SM -SHRA SCT020 BKN040 OVC050
FM302000 04008KT P6SM VCSH SCT050 BKN070
FM310100 02012G20KT P6SM SCT080 BKN100
FM310500 34013G21KT P6SM SCT120

Example: see airport list